DW9120 Mondonedo ES current weather conditions

sailwx.info

Wind from 198

Air temperature 8.9° C
Dewpoint -44.5° C

Last reported at 2020-Jan-22 22:46 UTC.
Time now 2020-Jan-22 23:58 UTC

Location: N 43°29' W 007°20'.
View on Google Maps.

See reports from other nearby stations

  
Tides and Currents Weather Stations Pressure Air Temp Water Temp Dewpoint Dewpoint Depression Visibility Wind Speed Wind Dir Waves Ship Positions
date/time (UTC)wind fromknots sea level pressurealtimeterstation pressurevisibilityair tempwater tempwave heightnotes
2020-Jan-22 22:46 198 8.9
2020-Jan-22 22:30 279 8.9
2020-Jan-22 22:15 038 9.4
2020-Jan-22 22:01 038 9.4
2020-Jan-22 21:45 038 9.4
2020-Jan-22 21:30 124 9.4
2020-Jan-22 21:15 124 9.4
2020-Jan-22 21:00 124 9.4
2020-Jan-22 20:48 124 9.4
2020-Jan-22 20:31 124 9.4
2020-Jan-22 20:19 027 9.4
2020-Jan-22 20:02 027 9.4
2020-Jan-22 19:46 027 9.4
2020-Jan-22 19:31 027 9.4
2020-Jan-22 19:17 027 9.4
2020-Jan-22 19:00 027 9.4
2020-Jan-22 18:46 027 10.0
2020-Jan-22 18:30 030 10.0
2020-Jan-22 18:15 036 10.0
2020-Jan-22 18:00 036 10.0
2020-Jan-22 17:45 028 2 gusting 5 10.0
2020-Jan-22 17:30 028 10.0
2020-Jan-22 17:17 013 10.0
2020-Jan-22 17:03 017 10.0
2020-Jan-22 16:46 351 0 gusting 6 10.0
2020-Jan-22 16:31 028 4 gusting 9 10.0
2020-Jan-22 16:16 045 2 gusting 9 10.6
2020-Jan-22 16:01 024 3 gusting 9 10.0
2020-Jan-22 15:47 028 3 gusting 8 10.0
2020-Jan-22 15:31 019 5 gusting 8 10.0
2020-Jan-22 15:16 017 6 gusting 10 10.0
2020-Jan-22 15:00 005 4 gusting 7 10.0
2020-Jan-22 14:45 010 2 gusting 5 10.0
2020-Jan-22 14:30 005 2 gusting 4 10.0
2020-Jan-22 14:15 034 2 gusting 4 10.6
2020-Jan-22 14:00 349 10.6
2020-Jan-22 13:47 360 10.6
2020-Jan-22 13:32 017 10.6
2020-Jan-22 13:17 022 1 gusting 7 10.6
2020-Jan-22 13:01 028 1 gusting 6 10.6
2020-Jan-22 12:47 355 2 gusting 6 10.6
2020-Jan-22 12:31 030 4 gusting 9 10.6
2020-Jan-22 12:16 009 6 gusting 12 10.6
2020-Jan-22 12:01 042 5 gusting 13 11.1
2020-Jan-22 11:45 059 11 gusting 20 11.1
2020-Jan-22 11:30 053 16 gusting 22 11.7
2020-Jan-22 11:15 032 11 gusting 22 11.7
2020-Jan-22 11:00 042 6 gusting 13 11.7
2020-Jan-22 10:45 042 8 gusting 16 11.7
2020-Jan-22 10:33 058 13 gusting 26 11.1
2020-Jan-22 10:17 031 7 gusting 16 11.1
2020-Jan-22 10:02 061 9 gusting 23 11.1
2020-Jan-22 09:46 016 11 gusting 18 11.1
2020-Jan-22 09:33 042 12 gusting 21 11.1
2020-Jan-22 09:17 058 12 gusting 21 11.1
2020-Jan-22 09:02 069 13 gusting 19 11.1
2020-Jan-22 08:46 034 11 gusting 23 11.1
2020-Jan-22 08:31 013 9 gusting 22 11.1
2020-Jan-22 08:16 067 6 gusting 17 11.1
2020-Jan-22 08:00 044 11 gusting 22 11.1
2020-Jan-22 07:45 045 12 gusting 19 11.1
2020-Jan-22 07:30 064 6 gusting 15 11.1
2020-Jan-22 07:15 036 7 gusting 16 11.1
2020-Jan-22 07:00 036 8 gusting 13 11.1
2020-Jan-22 06:45 057 12 gusting 19 11.1
2020-Jan-22 06:33 040 13 gusting 22 11.1
2020-Jan-22 06:17 014 9 gusting 16 11.1
2020-Jan-22 06:02 015 1 gusting 6 10.6
2020-Jan-22 05:46 040 8 gusting 15 10.6
2020-Jan-22 05:31 344 10.6
2020-Jan-22 05:17 030 10.6
2020-Jan-22 05:01 034 5 gusting 12 10.6
2020-Jan-22 04:45 038 4 gusting 11 10.0
2020-Jan-22 04:30 009 4 gusting 13 10.0
2020-Jan-22 04:15 026 5 gusting 14 10.0
2020-Jan-22 04:00 340 6 gusting 11 10.0
2020-Jan-22 03:45 030 3 gusting 8 10.0
2020-Jan-22 03:30 072 5 gusting 10 10.0
2020-Jan-22 03:17 032 6 gusting 10 9.4
2020-Jan-22 03:02 028 5 gusting 13 9.4
2020-Jan-22 02:46 061 6 gusting 10 9.4
2020-Jan-22 02:32 005 7 gusting 12 9.4
2020-Jan-22 02:16 031 6 gusting 11 8.9
2020-Jan-22 02:02 025 4 gusting 10 8.9
2020-Jan-22 01:45 036 3 gusting 7 8.9
2020-Jan-22 01:31 024 3 gusting 11 8.9
2020-Jan-22 01:15 041 6 gusting 13 8.9
2020-Jan-22 01:01 329 6 gusting 15 9.4
2020-Jan-22 00:45 022 7 gusting 13 9.4
2020-Jan-22 00:30 023 5 gusting 13 9.4
2020-Jan-22 00:15 027 7 gusting 12 9.4
2020-Jan-22 00:00 012 7 gusting 14 9.4
2020-Jan-21 23:49 054 10 gusting 15 9.4
2020-Jan-21 23:33 047 6 gusting 13 9.4
2020-Jan-21 23:17 024 9 gusting 14 9.4
2020-Jan-21 23:02 009 9 gusting 15 9.4
2020-Jan-21 22:46 032 11 gusting 18 9.4
2020-Jan-21 22:32 044 10 gusting 19 9.4
2020-Jan-21 22:17 046 13 gusting 19 9.4
2020-Jan-21 22:01 048 12 gusting 19 9.4
2020-Jan-21 21:46 052 8 gusting 13 9.4
2020-Jan-21 21:31 028 10 gusting 14 8.9
2020-Jan-21 21:15 057 6 gusting 12 8.9
2020-Jan-21 21:00 032 8 gusting 14 8.9
2020-Jan-21 20:45 038 10 gusting 18 8.9
2020-Jan-21 20:30 055 5 gusting 11 8.9
2020-Jan-21 20:15 038 5 gusting 13 8.9
2020-Jan-21 20:02 043 6 gusting 15 8.3
2020-Jan-21 19:47 057 7 gusting 13 8.3
2020-Jan-21 19:32 052 6 gusting 13 8.3
2020-Jan-21 19:16 084 10 gusting 14 8.3
2020-Jan-21 19:03 032 6 gusting 13 8.3
2020-Jan-21 18:46 053 6 gusting 11 8.3
2020-Jan-21 18:31 030 6 gusting 11 8.3
2020-Jan-21 18:15 030 6 gusting 10 7.8
2020-Jan-21 18:01 047 6 gusting 12 7.8
2020-Jan-21 17:45 032 9 gusting 19 7.8
2020-Jan-21 17:31 067 6 gusting 13 7.8
2020-Jan-21 17:15 046 7 gusting 14 7.8
2020-Jan-21 17:00 049 6 gusting 14 8.3
2020-Jan-21 16:46 038 5 gusting 11 8.3
2020-Jan-21 16:32 078 6 gusting 18 8.3
2020-Jan-21 16:16
2020-Jan-21 16:02 044 7 gusting 12 7.8
2020-Jan-21 15:46 032 4 gusting 12 7.8
2020-Jan-21 15:32 037 7 gusting 15 8.3
2020-Jan-21 15:16 019 10 gusting 23 8.3
2020-Jan-21 15:01 024 10 gusting 16 9.4
2020-Jan-21 14:46 069 9 gusting 20 10.0
2020-Jan-21 14:32 028 15 gusting 25 10.0
2020-Jan-21 14:15 033 12 gusting 19 10.0
2020-Jan-21 14:00 030 11 gusting 19 10.0
2020-Jan-21 13:46 055 13 gusting 23 9.4
2020-Jan-21 13:30 059 12 gusting 19 10.0
2020-Jan-21 13:15 052 6 gusting 20 10.0
2020-Jan-21 13:03 057 13 gusting 21 10.0
2020-Jan-21 12:47 042 14 gusting 22 10.0
2020-Jan-21 12:31 073 13 gusting 19 9.4
2020-Jan-21 12:16 049 12 gusting 22 9.4
2020-Jan-21 12:01 360 11 gusting 19 9.4
2020-Jan-21 11:46 015 12 gusting 19 9.4
2020-Jan-21 11:31 044 9 gusting 17 10.0
2020-Jan-21 11:15 034 9 gusting 21 10.6
2020-Jan-21 11:00 028 6 gusting 13 10.6
2020-Jan-21 10:45 050 9 gusting 18 10.0
2020-Jan-21 10:30 063 10 gusting 16 9.4
2020-Jan-21 10:15 068 5 gusting 10 8.3
2020-Jan-21 10:00 035 7.8
2020-Jan-21 09:47 019 7.8
2020-Jan-21 09:32 039 1 gusting 4 7.8
2020-Jan-21 09:02 355 7.8
2020-Jan-21 08:47 030 3 gusting 8 7.8
2020-Jan-21 08:31 040 5 gusting 8 7.8
2020-Jan-21 08:17 040 2 gusting 5 7.8
2020-Jan-21 08:01 011 3 gusting 8 7.8
2020-Jan-21 07:46 053 2 gusting 7 7.8
2020-Jan-21 07:30 034 7 gusting 13 7.8
2020-Jan-21 07:15 038 5 gusting 13 7.8
2020-Jan-21 07:00 033 6 gusting 11 7.8
2020-Jan-21 06:45 038 3 gusting 9 7.8
2020-Jan-21 06:30 045 4 gusting 10 7.8
2020-Jan-21 06:15 360 5 gusting 11 7.8
2020-Jan-21 06:01 030 4 gusting 10 7.8
2020-Jan-21 05:47 055 6 gusting 11 7.8
2020-Jan-21 05:32 034 4 gusting 9 7.8
2020-Jan-21 05:17 035 5 gusting 9 7.8
2020-Jan-21 05:01 360 6 gusting 12 7.8
2020-Jan-21 04:46 070 6 gusting 15 8.3
2020-Jan-21 04:33 047 6 gusting 12 8.3
2020-Jan-21 04:15 080 4 gusting 7 8.3
2020-Jan-21 04:01 061 4 gusting 9 8.3
2020-Jan-21 03:45 067 5 gusting 9 8.3
2020-Jan-21 03:31 025 6 gusting 9 8.3
2020-Jan-21 03:16 037 3 gusting 7 8.3
2020-Jan-21 03:00 337 3 gusting 9 8.3
2020-Jan-21 02:46 047 4 gusting 10 8.3
2020-Jan-21 02:31 022 4 gusting 9 8.3
2020-Jan-21 02:15 042 6 gusting 8 8.3
2020-Jan-21 02:00 024 4 gusting 8 8.3
2020-Jan-21 01:45 056 3 gusting 11 8.3
2020-Jan-21 01:30 005 4 gusting 11 8.3
2020-Jan-21 01:15 058 8 gusting 15 8.3
2020-Jan-21 01:00 061 6 gusting 9 8.3
2020-Jan-21 00:45 035 4 gusting 10 8.3
2020-Jan-21 00:30 024 3 gusting 12 8.3
2020-Jan-21 00:15 039 5 gusting 11 8.3
2020-Jan-21 00:00 059 2 gusting 6 8.3
2020-Jan-20 23:45 035 1 gusting 10 8.3
2020-Jan-20 23:30 053 4 gusting 10 8.3
2020-Jan-20 23:15 062 6 gusting 11 8.3
2020-Jan-20 23:02 030 5 gusting 12 8.3